createdAt,value
2023-01-10T00:00:59.059Z,963.2
2023-01-10T00:02:42.764Z,961.1
2023-01-10T00:04:26.465Z,955
2023-01-10T00:06:10.171Z,948.5
2023-01-10T00:07:53.870Z,945.1
2023-01-10T00:09:37.596Z,942.9
2023-01-10T00:11:21.276Z,939.4
2023-01-10T00:13:04.974Z,932.7
2023-01-10T00:14:48.687Z,932.3
2023-01-10T00:16:32.377Z,925.1
2023-01-10T00:18:16.091Z,916.9
2023-01-10T00:19:59.785Z,911.9
2023-01-10T00:21:43.499Z,909.2
2023-01-10T00:23:27.173Z,907.6
2023-01-10T00:25:10.892Z,905.9
2023-01-10T00:26:54.592Z,900.1
2023-01-10T00:28:38.318Z,896.8
2023-01-10T00:30:21.991Z,895.5
2023-01-10T00:32:05.686Z,892.2
2023-01-10T00:33:49.403Z,890.3
2023-01-10T00:35:33.111Z,886.9
2023-01-10T00:37:16.802Z,882.9
2023-01-10T00:39:00.513Z,878.2
2023-01-10T00:40:44.210Z,875
2023-01-10T00:42:27.920Z,866.9
2023-01-10T00:44:11.661Z,860.7
2023-01-10T00:45:55.363Z,854.7
2023-01-10T00:47:39.060Z,851.9
2023-01-10T00:49:22.756Z,852.5
2023-01-10T00:51:06.474Z,850.9
2023-01-10T00:52:50.167Z,848.3
2023-01-10T00:54:33.888Z,840.5
2023-01-10T00:56:17.570Z,839.4
2023-01-10T00:58:01.270Z,840
2023-01-10T00:59:44.972Z,835.4
2023-01-10T01:01:28.684Z,828.4
2023-01-10T01:03:12.368Z,822.7
2023-01-10T01:04:56.058Z,817.8
2023-01-10T01:06:40.055Z,812.6
2023-01-10T01:08:23.463Z,811.6
2023-01-10T01:10:07.199Z,811
2023-01-10T01:11:50.862Z,808.1
2023-01-10T01:13:34.573Z,803.8
2023-01-10T01:15:18.250Z,803.1
2023-01-10T01:17:01.953Z,802.4
2023-01-10T01:18:45.670Z,801.3
2023-01-10T01:20:29.391Z,797.2
2023-01-10T01:22:13.090Z,791.6
2023-01-10T01:23:56.780Z,788.2
2023-01-10T01:25:40.464Z,785.2
2023-01-10T01:27:24.173Z,782.5
2023-01-10T01:29:07.893Z,777
2023-01-10T01:30:51.591Z,771.9
2023-01-10T01:32:35.304Z,768.7
2023-01-10T01:34:18.986Z,763
2023-01-10T01:36:02.683Z,759
2023-01-10T01:37:46.392Z,752.9
2023-01-10T01:39:30.142Z,751
2023-01-10T01:41:13.792Z,750.7
2023-01-10T01:42:57.537Z,750
2023-01-10T01:44:41.188Z,749
2023-01-10T01:46:24.901Z,744.6
2023-01-10T01:48:08.625Z,743.2
2023-01-10T01:49:52.358Z,744.6
2023-01-10T01:51:36.010Z,743
2023-01-10T01:53:19.754Z,742.7
2023-01-10T01:55:03.431Z,744.3
2023-01-10T01:56:47.112Z,745.4
2023-01-10T02:00:14.521Z,740.9
2023-01-10T02:01:58.224Z,737.8
2023-01-10T02:03:42.054Z,736.5
2023-01-10T02:05:25.661Z,736.2
2023-01-10T02:07:09.334Z,733.6
2023-01-10T02:08:53.030Z,735.1
2023-01-10T02:10:36.943Z,733.1
2023-01-10T02:12:20.461Z,732.8
2023-01-10T02:14:04.150Z,732.5
2023-01-10T02:15:47.852Z,727.9
2023-01-10T02:17:31.541Z,722.3
2023-01-10T02:19:15.277Z,716.5
2023-01-10T02:20:58.948Z,713.4
2023-01-10T02:22:42.663Z,710.4
2023-01-10T02:24:26.382Z,706.9
2023-01-10T02:26:10.074Z,704.5
2023-01-10T02:27:53.763Z,701.9
2023-01-10T02:29:37.581Z,698.8
2023-01-10T02:31:21.183Z,700
2023-01-10T02:33:04.901Z,696.9
2023-01-10T02:34:48.607Z,695.7
2023-01-10T02:36:32.289Z,696.2
2023-01-10T02:38:15.985Z,695.3
2023-01-10T02:39:59.695Z,694.1
2023-01-10T02:41:43.419Z,694.4
2023-01-10T02:43:27.090Z,693.1
2023-01-10T02:45:10.810Z,689.5
2023-01-10T02:46:54.503Z,687.3
2023-01-10T02:48:38.240Z,686
2023-01-10T02:50:21.915Z,682.8
2023-01-10T02:52:05.615Z,681.9
2023-01-10T02:53:49.382Z,679.4
2023-01-10T02:55:33.017Z,677.2
2023-01-10T02:57:16.730Z,677.3
2023-01-10T02:59:00.434Z,677
2023-01-10T03:00:44.173Z,673.9
2023-01-10T03:02:27.851Z,668.5
2023-01-10T03:04:11.556Z,667.8
2023-01-10T03:05:55.244Z,667.4
2023-01-10T03:07:38.992Z,664.8
2023-01-10T03:09:22.676Z,660.4
2023-01-10T03:11:06.365Z,657
2023-01-10T03:12:50.058Z,658.4
2023-01-10T03:14:33.772Z,655.1
2023-01-10T03:16:17.473Z,650.8
2023-01-10T03:18:01.173Z,651.3
2023-01-10T03:19:44.870Z,652.8
2023-01-10T03:23:12.264Z,652.1
2023-01-10T03:25:05.655Z,650.4
2023-01-10T03:26:39.755Z,648.5
2023-01-10T03:28:23.403Z,643.8
2023-01-10T03:30:07.093Z,640.4
2023-01-10T03:31:50.803Z,640.4
2023-01-10T03:33:34.484Z,640.9
2023-01-10T03:35:18.186Z,638.3
2023-01-10T03:37:01.988Z,635.1
2023-01-10T03:38:45.573Z,632.6
2023-01-10T03:40:29.305Z,631.1
2023-01-10T03:42:12.997Z,630.1
2023-01-10T03:43:56.662Z,628.7
2023-01-10T03:45:40.385Z,627.8
2023-01-10T03:47:24.087Z,629.3
2023-01-10T03:49:07.787Z,626.5
2023-01-10T03:50:51.487Z,624.4
2023-01-10T03:52:35.210Z,624.2
2023-01-10T03:54:18.892Z,622.2
2023-01-10T03:56:02.587Z,621.5
2023-01-10T03:57:46.304Z,620.4
2023-01-10T03:59:29.996Z,615.5
2023-01-10T04:01:13.722Z,612.5
2023-01-10T04:02:57.391Z,611.7
2023-01-10T04:04:41.072Z,612.3
2023-01-10T04:06:24.772Z,613.5
2023-01-10T04:08:08.529Z,613
2023-01-10T04:09:52.207Z,611.1
2023-01-10T04:11:35.904Z,608.7
2023-01-10T04:13:19.595Z,608.7
2023-01-10T04:15:03.282Z,607.1
2023-01-10T04:16:47.009Z,608.4
2023-01-10T04:18:30.686Z,609.1
2023-01-10T04:20:14.392Z,607.7
2023-01-10T04:21:58.083Z,606
2023-01-10T04:23:41.808Z,603.5
2023-01-10T04:25:25.503Z,603.7
2023-01-10T04:27:09.187Z,603
2023-01-10T04:28:52.927Z,600.4
2023-01-10T04:30:36.634Z,598.2
2023-01-10T04:32:20.334Z,597.3
2023-01-10T04:34:04.011Z,594.7
2023-01-10T04:35:47.714Z,591
2023-01-10T04:37:31.406Z,588.2
2023-01-10T04:39:15.140Z,588.5
2023-01-10T04:40:58.849Z,589.9
2023-01-10T04:42:42.541Z,590.8
2023-01-10T04:44:26.255Z,592.6
2023-01-10T04:46:09.974Z,593.4
2023-01-10T04:47:53.651Z,593
2023-01-10T04:49:37.345Z,589.9
2023-01-10T04:51:21.035Z,588.4
2023-01-10T04:53:04.744Z,586.8
2023-01-10T04:54:48.436Z,588.3
2023-01-10T04:56:32.150Z,588
2023-01-10T04:58:15.841Z,585.8
2023-01-10T04:59:59.554Z,585.9
2023-01-10T05:01:43.257Z,585.5
2023-01-10T05:03:26.947Z,583.3
2023-01-10T05:05:10.690Z,579.9
2023-01-10T05:06:54.330Z,578
2023-01-10T05:08:38.080Z,575.6
2023-01-10T05:10:21.784Z,574.6
2023-01-10T05:12:05.441Z,576.6
2023-01-10T05:13:49.171Z,577.9
2023-01-10T05:15:32.858Z,576.3
2023-01-10T05:17:16.569Z,575.5
2023-01-10T05:19:00.287Z,573.4
2023-01-10T05:20:43.954Z,572
2023-01-10T05:22:27.681Z,573.4
2023-01-10T05:24:11.447Z,576.6
2023-01-10T05:25:55.111Z,575.9
2023-01-10T05:27:38.757Z,576.7
2023-01-10T05:29:22.500Z,573.4
2023-01-10T05:31:06.197Z,573.5
2023-01-10T05:32:49.875Z,569.6
2023-01-10T05:34:33.606Z,567.3
2023-01-10T05:36:17.292Z,565.9
2023-01-10T05:38:00.988Z,564.1
2023-01-10T05:39:44.691Z,562.4
2023-01-10T05:41:28.404Z,561.5
2023-01-10T05:43:12.100Z,561.2
2023-01-10T05:44:55.830Z,561.6
2023-01-10T05:46:39.495Z,558.3
2023-01-10T05:48:23.244Z,560.4
2023-01-10T05:50:06.980Z,563.6
2023-01-10T05:51:50.604Z,566.2
2023-01-10T05:53:34.314Z,565.8
2023-01-10T05:55:18.065Z,562.6
2023-01-10T05:57:01.827Z,560.3
2023-01-10T05:58:45.396Z,555.4
2023-01-10T06:00:29.100Z,552.4
2023-01-10T06:02:12.816Z,551.7
2023-01-10T06:03:56.512Z,550.2
2023-01-10T06:05:40.215Z,547.5
2023-01-10T06:07:23.913Z,545.9
2023-01-10T06:09:07.645Z,545.3
2023-01-10T06:10:51.364Z,543.8
2023-01-10T06:12:35.010Z,543.1
2023-01-10T06:14:18.738Z,542.7
2023-01-10T06:16:02.433Z,543.6
2023-01-10T06:17:46.134Z,544.1
2023-01-10T06:19:29.821Z,543.3
2023-01-10T06:21:13.524Z,542.1
2023-01-10T06:22:57.234Z,539.5
2023-01-10T06:24:40.940Z,540.6
2023-01-10T06:26:24.651Z,540.8
2023-01-10T06:28:08.398Z,541.7
2023-01-10T06:29:52.041Z,544.5
2023-01-10T06:31:35.742Z,548.2
2023-01-10T06:33:19.448Z,549.8
2023-01-10T06:35:03.162Z,549.2
2023-01-10T06:36:46.919Z,547.6
2023-01-10T06:38:30.636Z,545.6
2023-01-10T06:40:14.273Z,541.3
2023-01-10T06:41:58.029Z,537.8
2023-01-10T06:43:41.725Z,539.6
2023-01-10T06:45:25.417Z,538.6
2023-01-10T06:47:09.058Z,537.5
2023-01-10T06:48:52.850Z,538.2
2023-01-10T06:50:36.535Z,541.1
2023-01-10T06:52:20.156Z,541.2
2023-01-10T06:54:03.951Z,539.5
2023-01-10T06:55:47.551Z,541.6
2023-01-10T06:57:31.297Z,541.1
2023-01-10T06:59:14.981Z,540.9
2023-01-10T07:00:58.871Z,537.7
2023-01-10T07:02:42.376Z,537.7
2023-01-10T07:04:26.108Z,536.8
2023-01-10T07:06:09.768Z,537
2023-01-10T07:07:53.460Z,538.9
2023-01-10T07:09:37.239Z,539.5
2023-01-10T07:11:20.910Z,540.6
2023-01-10T07:13:04.608Z,541.6
2023-01-10T07:14:48.277Z,543.9
2023-01-10T07:16:32.008Z,546.1
2023-01-10T07:18:15.832Z,548.7
2023-01-10T07:19:59.388Z,554
2023-01-10T07:21:43.112Z,554.5
2023-01-10T07:23:26.875Z,557.2
2023-01-10T07:25:10.490Z,556.3
2023-01-10T07:26:54.206Z,556.7
2023-01-10T07:28:37.956Z,556.5
2023-01-10T07:30:21.592Z,555.9
2023-01-10T07:32:05.301Z,556
2023-01-10T07:33:49.006Z,556
2023-01-10T07:35:32.692Z,553.4
2023-01-10T07:37:16.403Z,554.3
2023-01-10T07:39:00.148Z,554.3
2023-01-10T07:40:43.799Z,552.4
2023-01-10T07:42:27.508Z,551.3
2023-01-10T07:44:11.280Z,549.9
2023-01-10T07:45:54.923Z,548.2
2023-01-10T07:47:38.673Z,549.5
2023-01-10T07:49:22.328Z,550.4
2023-01-10T07:51:06.126Z,548.7
2023-01-10T07:52:49.767Z,547.4
2023-01-10T07:54:33.442Z,549.3
2023-01-10T07:56:17.134Z,548.8
2023-01-10T07:58:00.844Z,546.9
2023-01-10T07:59:44.574Z,546
2023-01-10T08:01:28.270Z,571
2023-01-10T08:03:11.956Z,596.1
2023-01-10T08:04:55.692Z,597.2
2023-01-10T08:06:39.446Z,605.2
2023-01-10T08:08:23.089Z,611.5
2023-01-10T08:10:06.744Z,613.3
2023-01-10T08:11:50.548Z,617.4
2023-01-10T08:13:34.259Z,618.1
2023-01-10T08:15:17.880Z,616.4
2023-01-10T08:17:01.584Z,618.9
2023-01-10T08:18:45.279Z,624.7
2023-01-10T08:20:28.962Z,632.3
2023-01-10T08:22:12.664Z,641.7
2023-01-10T08:23:56.370Z,649.9
2023-01-10T08:25:40.086Z,655.8
2023-01-10T08:27:23.783Z,657
2023-01-10T08:29:07.588Z,665
2023-01-10T08:30:51.267Z,667
2023-01-10T08:32:34.887Z,665.2
2023-01-10T08:34:18.595Z,665.8
2023-01-10T08:36:02.302Z,668
2023-01-10T08:37:45.989Z,671.7
2023-01-10T08:39:37.677Z,662.7
2023-01-10T08:41:13.394Z,647.3
2023-01-10T08:43:19.170Z,639.9
2023-01-10T08:44:40.807Z,642.6
2023-01-10T08:46:24.573Z,647.3
2023-01-10T08:48:08.281Z,651.5
2023-01-10T08:49:51.914Z,660
2023-01-10T08:51:39.402Z,680.1
2023-01-10T08:53:19.434Z,716.8
2023-01-10T08:55:03.027Z,729.3
2023-01-10T08:56:46.726Z,735.9
2023-01-10T08:58:30.436Z,739.9
2023-01-10T09:00:14.171Z,745.6
2023-01-10T09:01:57.838Z,761
2023-01-10T09:03:41.585Z,774.7
2023-01-10T09:05:25.261Z,778.7
2023-01-10T09:07:08.956Z,784.2
2023-01-10T09:08:52.805Z,787.6
2023-01-10T09:10:36.480Z,790.5
2023-01-10T09:12:20.070Z,797
2023-01-10T09:14:06.184Z,802
2023-01-10T09:16:01.714Z,805.8
2023-01-10T09:17:35.928Z,807.3
2023-01-10T09:19:27.160Z,808.2
2023-01-10T09:20:58.587Z,810.1
2023-01-10T09:22:52.581Z,812.4
2023-01-10T09:24:29.916Z,815.7
2023-01-10T09:26:12.238Z,816.5
2023-01-10T09:27:53.524Z,813.3
2023-01-10T09:29:37.217Z,811.6
2023-01-10T09:31:20.903Z,813.5
2023-01-10T09:33:04.519Z,817
2023-01-10T09:34:48.272Z,819.6
2023-01-10T09:36:31.948Z,820.3
2023-01-10T09:38:15.728Z,821.2
2023-01-10T09:39:59.300Z,821.1
2023-01-10T09:41:43.021Z,818.4
2023-01-10T09:43:26.857Z,820.6
2023-01-10T09:45:10.441Z,819
2023-01-10T09:46:54.149Z,818.3
2023-01-10T09:48:37.818Z,820.3
2023-01-10T09:50:21.500Z,823.4
2023-01-10T09:52:05.240Z,827.6
2023-01-10T09:53:48.918Z,829.9
2023-01-10T09:55:32.817Z,833.2
2023-01-10T09:57:16.440Z,837.8
2023-01-10T09:59:00.197Z,839.1
2023-01-10T10:00:43.766Z,841.3
2023-01-10T10:02:27.414Z,846.1
2023-01-10T10:04:11.112Z,850.7
2023-01-10T10:05:54.844Z,855.6
2023-01-10T10:07:38.540Z,857.3
2023-01-10T10:09:22.224Z,859.7
2023-01-10T10:11:05.931Z,858.5
2023-01-10T10:12:49.629Z,861.6
2023-01-10T10:14:33.379Z,856.3
2023-01-10T10:16:17.016Z,852
2023-01-10T10:18:00.726Z,846
2023-01-10T10:19:44.423Z,841
2023-01-10T10:21:28.125Z,832.8
2023-01-10T10:23:11.828Z,828.8
2023-01-10T10:24:55.552Z,823.9
2023-01-10T10:26:39.222Z,817.6
2023-01-10T10:28:22.935Z,814
2023-01-10T10:30:06.638Z,812.1
2023-01-10T10:31:50.348Z,811.4
2023-01-10T10:33:34.066Z,807.5
2023-01-10T10:35:17.727Z,805
2023-01-10T10:37:01.452Z,806.5
2023-01-10T10:38:45.146Z,802.6
2023-01-10T10:40:28.834Z,800.9
2023-01-10T10:42:12.559Z,795.9
2023-01-10T10:43:56.273Z,792.6
2023-01-10T10:45:39.960Z,791.3
2023-01-10T10:47:23.676Z,788.7
2023-01-10T10:49:07.427Z,786.1
2023-01-10T10:50:51.068Z,783
2023-01-10T10:52:34.890Z,781.7
2023-01-10T10:54:18.634Z,779.5
2023-01-10T10:56:02.305Z,779
2023-01-10T10:57:45.948Z,777.5
2023-01-10T10:59:29.550Z,774.9
2023-01-10T11:01:13.282Z,772.5
2023-01-10T11:02:56.962Z,768.2
2023-01-10T11:04:40.670Z,767.3
2023-01-10T11:06:24.357Z,766.3
2023-01-10T11:08:08.067Z,766.1
2023-01-10T11:09:51.792Z,765.2
2023-01-10T11:11:35.479Z,766.3
2023-01-10T11:13:19.192Z,771.5
2023-01-10T11:15:02.876Z,783.7
2023-01-10T11:16:46.594Z,834.4
2023-01-10T11:18:30.297Z,872.4
2023-01-10T11:20:13.989Z,861.5
2023-01-10T11:21:57.682Z,852.5
2023-01-10T11:23:41.392Z,853.8
2023-01-10T11:25:25.121Z,856.7
2023-01-10T11:27:08.827Z,860.2
2023-01-10T11:28:52.516Z,858.8
2023-01-10T11:30:36.220Z,856.3
2023-01-10T11:32:19.920Z,854.6
2023-01-10T11:34:03.616Z,854.7
2023-01-10T11:35:47.324Z,852.5
2023-01-10T11:37:31.018Z,851.3
2023-01-10T11:39:14.714Z,849.1
2023-01-10T11:40:58.424Z,851.2
2023-01-10T11:42:42.117Z,852.1
2023-01-10T11:44:25.852Z,852
2023-01-10T11:46:09.567Z,853.1
2023-01-10T11:47:53.413Z,857.2
2023-01-10T11:49:37.026Z,858.5
2023-01-10T11:51:20.618Z,853.4
2023-01-10T11:53:04.315Z,845.7
2023-01-10T11:54:48.032Z,839.5
2023-01-10T11:56:31.719Z,834.9
2023-01-10T11:58:15.424Z,827.4
2023-01-10T11:59:59.129Z,824.7
2023-01-10T12:01:42.826Z,820.5
2023-01-10T12:03:26.527Z,816.5
2023-01-10T12:05:10.247Z,815.7
2023-01-10T12:06:53.944Z,814.9
2023-01-10T12:08:37.636Z,820.5
2023-01-10T12:10:21.345Z,825.1
2023-01-10T12:12:05.060Z,824.2
2023-01-10T12:13:48.748Z,823.4
2023-01-10T12:15:32.474Z,822.9
2023-01-10T12:17:16.149Z,825.7
2023-01-10T12:18:59.869Z,829.9
2023-01-10T12:20:43.568Z,834.4
2023-01-10T12:22:27.268Z,839.1
2023-01-10T12:24:10.979Z,844.8
2023-01-10T12:25:54.662Z,850.8
2023-01-10T12:27:38.427Z,855.7
2023-01-10T12:29:22.058Z,854.9
2023-01-10T12:31:05.779Z,854
2023-01-10T12:32:49.457Z,855.3
2023-01-10T12:34:33.159Z,854
2023-01-10T12:36:16.869Z,858.7
2023-01-10T12:38:00.586Z,861.6
2023-01-10T12:39:44.263Z,863
2023-01-10T12:41:27.982Z,867.5
2023-01-10T12:43:11.661Z,872.3
2023-01-10T12:44:55.386Z,878.3
2023-01-10T12:46:39.073Z,880.8
2023-01-10T12:48:22.782Z,885.3
2023-01-10T12:50:06.470Z,888.6
2023-01-10T12:51:50.176Z,892.3
2023-01-10T12:53:33.875Z,892.1
2023-01-10T12:55:17.600Z,894.8
2023-01-10T12:57:01.298Z,899.7
2023-01-10T12:58:44.990Z,903.6
2023-01-10T13:00:28.683Z,905.8
2023-01-10T13:02:12.371Z,912.5
2023-01-10T13:03:56.107Z,923.2
2023-01-10T13:05:39.786Z,933.9
2023-01-10T13:07:23.497Z,948.2
2023-01-10T13:09:07.200Z,977.1
2023-01-10T13:10:50.913Z,990.2
2023-01-10T13:12:34.596Z,1001.4
2023-01-10T13:14:18.298Z,1020.9
2023-01-10T13:16:02.014Z,1033.1
2023-01-10T13:17:45.691Z,1046.4
2023-01-10T13:19:29.431Z,1054.6
2023-01-10T13:21:13.112Z,1061.5
2023-01-10T13:22:56.794Z,1073.1
2023-01-10T13:24:40.519Z,1124.1
2023-01-10T13:26:24.226Z,1163.6
2023-01-10T13:28:07.905Z,1184.6
2023-01-10T13:29:51.596Z,1189.4
2023-01-10T13:31:35.310Z,1196
2023-01-10T13:33:19.157Z,1194.8
2023-01-10T13:35:02.811Z,1199.7
2023-01-10T13:36:46.421Z,1204.7
2023-01-10T13:38:30.129Z,1207.7
2023-01-10T13:40:13.830Z,1210.1
2023-01-10T13:41:57.516Z,1213.2
2023-01-10T13:43:41.261Z,1219.4
2023-01-10T13:45:25.093Z,1231.4
2023-01-10T13:47:08.704Z,1238.3
2023-01-10T13:48:52.336Z,1239.4
2023-01-10T13:50:36.039Z,1242
2023-01-10T13:52:19.753Z,1249
2023-01-10T13:54:03.427Z,1260.5
2023-01-10T13:55:47.170Z,1268.4
2023-01-10T13:57:30.849Z,1277.5
2023-01-10T13:59:14.563Z,1277.3
2023-01-10T14:00:58.232Z,1271.8
2023-01-10T14:02:41.936Z,1272
2023-01-10T14:04:25.669Z,1271.4
2023-01-10T14:06:09.357Z,1273.4
2023-01-10T14:07:53.045Z,1277.7
2023-01-10T14:09:36.766Z,1281.9
2023-01-10T14:11:20.458Z,1285.8
2023-01-10T14:13:04.171Z,1289.7
2023-01-10T14:14:47.878Z,1293.3
2023-01-10T14:16:31.580Z,1291
2023-01-10T14:18:15.292Z,1293.6
2023-01-10T14:19:58.996Z,1291.2
2023-01-10T14:21:42.757Z,1281.3
2023-01-10T14:23:26.383Z,1268.7
2023-01-10T14:25:10.087Z,1257.3
2023-01-10T14:26:53.780Z,1247.4
2023-01-10T14:28:37.509Z,1243.4
2023-01-10T14:30:21.185Z,1237.9
2023-01-10T14:32:04.891Z,1232.9
2023-01-10T14:33:48.597Z,1224.7
2023-01-10T14:35:32.288Z,1216.8
2023-01-10T14:37:15.990Z,1207.7
2023-01-10T14:38:59.692Z,1203.6
2023-01-10T14:40:43.408Z,1200.7
2023-01-10T14:42:27.090Z,1196.9
2023-01-10T14:44:10.823Z,1192.2
2023-01-10T14:45:54.505Z,1192.3
2023-01-10T14:47:38.190Z,1187.2
2023-01-10T14:49:21.895Z,1184.6
2023-01-10T14:51:05.593Z,1184.8
2023-01-10T14:52:49.307Z,1185.3
2023-01-10T14:54:32.995Z,1181.9
2023-01-10T14:56:16.752Z,1175.2
2023-01-10T14:58:00.416Z,1174.8
2023-01-10T14:59:44.115Z,1175.3
2023-01-10T15:01:27.961Z,1171.3
2023-01-10T15:03:11.502Z,1165.8
2023-01-10T15:04:55.201Z,1167.5
2023-01-10T15:06:38.917Z,1166.9
2023-01-10T15:08:22.623Z,1165.8
2023-01-10T15:10:06.400Z,1162
2023-01-10T15:11:50.187Z,1156
2023-01-10T15:13:33.736Z,1152.9
2023-01-10T15:15:17.409Z,1153
2023-01-10T15:17:01.138Z,1148.8
2023-01-10T15:18:44.827Z,1148.1
2023-01-10T15:20:28.522Z,1149.9
2023-01-10T15:22:12.229Z,1147.5
2023-01-10T15:23:55.939Z,1149.5
2023-01-10T15:25:39.633Z,1148.9
2023-01-10T15:27:23.335Z,1146.1
2023-01-10T15:29:07.042Z,1143.6
2023-01-10T15:30:50.733Z,1145.5
2023-01-10T15:32:34.559Z,1147.7
2023-01-10T15:34:18.150Z,1147.8
2023-01-10T15:36:01.838Z,1145.9
2023-01-10T15:37:45.545Z,1141.1
2023-01-10T15:39:29.249Z,1141.9
2023-01-10T15:41:12.947Z,1138.3
2023-01-10T15:42:56.646Z,1136.6
2023-01-10T15:44:40.369Z,1132.1
2023-01-10T15:46:24.071Z,1125.5
2023-01-10T15:48:07.752Z,1124.8
2023-01-10T15:49:51.470Z,1119.9
2023-01-10T15:51:35.178Z,1116.8
2023-01-10T15:53:18.860Z,1117.4
2023-01-10T15:55:02.559Z,1115.2
2023-01-10T15:56:46.248Z,1110.4
2023-01-10T15:58:29.965Z,1107.3
2023-01-10T16:00:13.678Z,1105.3
2023-01-10T16:01:57.396Z,1102.2
2023-01-10T16:03:41.075Z,1105.5
2023-01-10T16:05:24.794Z,1124.2
2023-01-10T16:07:08.504Z,1170
2023-01-10T16:08:52.170Z,1194.6
2023-01-10T16:10:35.880Z,1196.8
2023-01-10T16:12:19.589Z,1187.7
2023-01-10T16:14:03.292Z,1179
2023-01-10T16:15:46.968Z,1165.9
2023-01-10T16:17:30.672Z,1156.8
2023-01-10T16:19:14.399Z,1147.5
2023-01-10T16:20:58.205Z,1144.1
2023-01-10T16:22:41.773Z,1141
2023-01-10T16:24:25.490Z,1136.3
2023-01-10T16:26:09.373Z,1135.5
2023-01-10T16:27:52.884Z,1137.6
2023-01-10T16:29:36.590Z,1138.4
2023-01-10T16:31:20.292Z,1139.3
2023-01-10T16:33:03.993Z,1136.1
2023-01-10T16:34:47.693Z,1131.9
2023-01-10T16:36:31.417Z,1131.3
2023-01-10T16:38:15.104Z,1128.9
2023-01-10T16:39:58.818Z,1128
2023-01-10T16:41:42.518Z,1126.8
2023-01-10T16:43:26.214Z,1125.4
2023-01-10T16:45:09.994Z,1121.7
2023-01-10T16:46:53.616Z,1119.4
2023-01-10T16:48:37.316Z,1116.8
2023-01-10T16:50:21.023Z,1116.5
2023-01-10T16:52:04.728Z,1116.7
2023-01-10T16:53:48.445Z,1116.8
2023-01-10T16:55:32.131Z,1115.1
2023-01-10T16:57:15.823Z,1116.9
2023-01-10T16:58:59.530Z,1117.5
2023-01-10T17:00:43.238Z,1118.4
2023-01-10T17:02:26.930Z,1120.6
2023-01-10T17:04:10.644Z,1119.5
2023-01-10T17:05:54.339Z,1125.7
2023-01-10T17:07:38.033Z,1134.7
2023-01-10T17:09:21.733Z,1144.1
2023-01-10T17:11:05.445Z,1155.3
2023-01-10T17:12:49.148Z,1155.4
2023-01-10T17:14:32.848Z,1154
2023-01-10T17:16:16.543Z,1149.2
2023-01-10T17:18:00.248Z,1147.4
2023-01-10T17:19:43.954Z,1147.9
2023-01-10T17:21:27.665Z,1151
2023-01-10T17:23:11.360Z,1155.2
2023-01-10T17:24:55.074Z,1156.9
2023-01-10T17:26:38.772Z,1155.8
2023-01-10T17:28:22.472Z,1152.8
2023-01-10T17:30:06.176Z,1152.6
2023-01-10T17:31:49.884Z,1149.8
2023-01-10T17:33:33.577Z,1149.4
2023-01-10T17:35:17.266Z,1146.9
2023-01-10T17:37:00.977Z,1145.6
2023-01-10T17:38:44.713Z,1143.5
2023-01-10T17:40:28.382Z,1144
2023-01-10T17:42:12.061Z,1147.2
2023-01-10T17:43:55.774Z,1154.4
2023-01-10T17:45:39.466Z,1154.1
2023-01-10T17:47:23.191Z,1154.5
2023-01-10T17:49:06.879Z,1156.7
2023-01-10T17:50:50.566Z,1155.5
2023-01-10T17:52:34.278Z,1156.6
2023-01-10T17:54:17.994Z,1157.1
2023-01-10T17:56:01.698Z,1158.3
2023-01-10T17:57:45.395Z,1156.3
2023-01-10T17:59:29.099Z,1153.3
2023-01-10T18:01:12.796Z,1155.9
2023-01-10T18:02:56.491Z,1165.8
2023-01-10T18:04:40.193Z,1172.7
2023-01-10T18:06:23.915Z,1178.5
2023-01-10T18:08:07.608Z,1186.7
2023-01-10T18:09:51.296Z,1185.5
2023-01-10T18:11:35.024Z,1187.2
2023-01-10T18:13:18.728Z,1191.9
2023-01-10T18:15:02.417Z,1196.9
2023-01-10T18:16:46.141Z,1204.1
2023-01-10T18:18:29.827Z,1206.7
2023-01-10T18:20:13.514Z,1207.1
2023-01-10T18:21:57.209Z,1207.7
2023-01-10T18:23:41.079Z,1208.2
2023-01-10T18:25:24.629Z,1210.4
2023-01-10T18:27:08.401Z,1210.4
2023-01-10T18:28:52.028Z,1206.8
2023-01-10T18:30:35.721Z,1203.7
2023-01-10T18:32:19.429Z,1203.9
2023-01-10T18:34:03.151Z,1206.5
2023-01-10T18:35:46.827Z,1204.8
2023-01-10T18:37:30.537Z,1207.1
2023-01-10T18:39:14.257Z,1208.8
2023-01-10T18:40:57.935Z,1206.6
2023-01-10T18:42:41.658Z,1204.4
2023-01-10T18:44:25.330Z,1202.9
2023-01-10T18:46:09.031Z,1205.2
2023-01-10T18:47:52.754Z,1207.7
2023-01-10T18:49:36.447Z,1212.1
2023-01-10T18:51:20.138Z,1212.6
2023-01-10T18:53:03.846Z,1212.4
2023-01-10T18:54:47.541Z,1212.5
2023-01-10T18:56:31.237Z,1212.6
2023-01-10T18:58:14.966Z,1210.8
2023-01-10T18:59:58.649Z,1210.3
2023-01-10T19:01:42.354Z,1208.3
2023-01-10T19:03:26.032Z,1209.8
2023-01-10T19:05:09.740Z,1215.3
2023-01-10T19:06:53.449Z,1214.8
2023-01-10T19:08:37.152Z,1214.8
2023-01-10T19:10:20.838Z,1216.1
2023-01-10T19:12:04.560Z,1211.1
2023-01-10T19:13:48.243Z,1213.6
2023-01-10T19:15:31.970Z,1216.5
2023-01-10T19:17:15.652Z,1215.5
2023-01-10T19:18:59.347Z,1214.3
2023-01-10T19:20:43.080Z,1216.9
2023-01-10T19:22:26.773Z,1221
2023-01-10T19:24:10.470Z,1221.8
2023-01-10T19:25:54.145Z,1220.2
2023-01-10T19:27:37.857Z,1218.7
2023-01-10T19:29:21.571Z,1219.7
2023-01-10T19:31:05.289Z,1221.6
2023-01-10T19:32:48.957Z,1223.1
2023-01-10T19:34:32.669Z,1221.6
2023-01-10T19:36:16.388Z,1217.6
2023-01-10T19:38:00.083Z,1214
2023-01-10T19:39:43.769Z,1212.3
2023-01-10T19:41:27.466Z,1213.3
2023-01-10T19:43:11.170Z,1211.8
2023-01-10T19:44:54.855Z,1213.8
2023-01-10T19:46:38.585Z,1213.9
2023-01-10T19:48:22.267Z,1210.9
2023-01-10T19:50:05.979Z,1209.2
2023-01-10T19:51:49.660Z,1205.1
2023-01-10T19:53:33.357Z,1200.6
2023-01-10T19:55:17.079Z,1202.2
2023-01-10T19:57:00.771Z,1204.9
2023-01-10T19:58:44.457Z,1203.8
2023-01-10T20:00:28.164Z,1204.9
2023-01-10T20:02:11.868Z,1207
2023-01-10T20:03:55.575Z,1219.3
2023-01-10T20:05:39.266Z,1229.4
2023-01-10T20:07:22.965Z,1225.3
2023-01-10T20:09:06.688Z,1214.5
2023-01-10T20:10:50.396Z,1211.6
2023-01-10T20:12:34.072Z,1214.3
2023-01-10T20:14:17.795Z,1215.2
2023-01-10T20:16:01.502Z,1220
2023-01-10T20:17:45.189Z,1224.1
2023-01-10T20:19:28.894Z,1223
2023-01-10T20:21:12.598Z,1220.6
2023-01-10T20:22:56.315Z,1218.2
2023-01-10T20:24:39.995Z,1220.2
2023-01-10T20:26:23.714Z,1221.9
2023-01-10T20:28:07.410Z,1222
2023-01-10T20:29:51.120Z,1218.1
2023-01-10T20:31:34.812Z,1220.6
2023-01-10T20:33:18.526Z,1222.1
2023-01-10T20:35:02.221Z,1217.9
2023-01-10T20:36:45.926Z,1216.3
2023-01-10T20:38:29.615Z,1215.1
2023-01-10T20:40:13.307Z,1211.9
2023-01-10T20:41:57.033Z,1211.4
2023-01-10T20:43:40.778Z,1205.7
2023-01-10T20:45:24.426Z,1195.7
2023-01-10T20:47:08.127Z,1185.3
2023-01-10T20:48:51.839Z,1179.8
2023-01-10T20:50:35.535Z,1175.2
2023-01-10T20:52:19.221Z,1171.2
2023-01-10T20:54:02.945Z,1166.2
2023-01-10T20:55:46.644Z,1164.1
2023-01-10T20:57:30.341Z,1158
2023-01-10T20:59:14.034Z,1151.1
2023-01-10T21:00:57.741Z,1149.7
2023-01-10T21:02:41.444Z,1147.4
2023-01-10T21:04:25.145Z,1146.1
2023-01-10T21:06:08.880Z,1140.4
2023-01-10T21:07:52.551Z,1142.1
2023-01-10T21:09:36.421Z,1144.6
2023-01-10T21:11:19.967Z,1145.5
2023-01-10T21:13:03.660Z,1143.6
2023-01-10T21:14:47.353Z,1136.3
2023-01-10T21:16:31.072Z,1137.1
2023-01-10T21:18:14.758Z,1137.5
2023-01-10T21:19:58.452Z,1141
2023-01-10T21:21:42.166Z,1144.1
2023-01-10T21:23:25.845Z,1141.9
2023-01-10T21:25:09.563Z,1140.7
2023-01-10T21:26:53.261Z,1142
2023-01-10T21:28:36.959Z,1142.2
2023-01-10T21:30:20.713Z,1137.2
2023-01-10T21:32:04.367Z,1140.2
2023-01-10T21:33:48.074Z,1143.5
2023-01-10T21:35:31.767Z,1144.8
2023-01-10T21:37:15.517Z,1149.8
2023-01-10T21:38:59.173Z,1151.1
2023-01-10T21:40:42.880Z,1150.5
2023-01-10T21:42:26.575Z,1152.7
2023-01-10T21:44:10.272Z,1154.1
2023-01-10T21:45:53.983Z,1155.3
2023-01-10T21:47:37.698Z,1157.8
2023-01-10T21:49:21.401Z,1159.8
2023-01-10T21:51:05.104Z,1165.2
2023-01-10T21:52:48.829Z,1170.7
2023-01-10T21:54:32.492Z,1170.9
2023-01-10T21:56:16.209Z,1166.7
2023-01-10T21:57:59.970Z,1166.1
2023-01-10T21:59:43.625Z,1168.1
2023-01-10T22:01:27.306Z,1170.3
2023-01-10T22:03:11.014Z,1172.6
2023-01-10T22:04:54.729Z,1178.8
2023-01-10T22:06:38.411Z,1185.3
2023-01-10T22:08:22.130Z,1187.7
2023-01-10T22:10:05.831Z,1186.8